createdAt,value
2023-04-16T00:04:23.314Z,89.15
2023-04-16T00:09:23.028Z,90.36
2023-04-16T00:14:23.037Z,89.36
2023-04-16T00:19:23.005Z,89.39
2023-04-16T00:24:22.910Z,88.74
2023-04-16T00:29:22.848Z,88.23
2023-04-16T00:34:22.803Z,88.29
2023-04-16T00:39:22.844Z,88.08
2023-04-16T00:44:22.717Z,88.08
2023-04-16T00:49:32.533Z,89.15
2023-04-16T00:54:22.610Z,88.08
2023-04-16T00:59:22.604Z,88.18
2023-04-16T01:04:22.654Z,87.92
2023-04-16T01:09:22.516Z,88.18
2023-04-16T01:14:22.515Z,88.29
2023-04-16T01:19:22.320Z,88.39
2023-04-16T01:24:22.294Z,87.77
2023-04-16T01:29:22.212Z,87.67
2023-04-16T01:34:22.233Z,88.43
2023-04-16T01:39:22.320Z,88.98
2023-04-16T01:44:22.168Z,88.64
2023-04-16T01:49:23.099Z,88.12
2023-04-16T01:54:23.132Z,88.84
2023-04-16T01:59:22.222Z,87.98
2023-04-16T02:04:21.943Z,87.88
2023-04-16T02:09:21.791Z,87.71
2023-04-16T02:14:21.810Z,88.64
2023-04-16T02:19:21.740Z,87.47
2023-04-16T02:24:21.674Z,88.33
2023-04-16T02:29:21.607Z,87.67
2023-04-16T02:34:21.506Z,88.53
2023-04-16T02:39:21.550Z,88.39
2023-04-16T02:44:21.426Z,88.23
2023-04-16T02:49:21.379Z,88.29
2023-04-16T02:54:21.319Z,88.53
2023-04-16T02:59:21.463Z,88.29
2023-04-16T03:04:21.400Z,87.73
2023-04-16T03:09:21.328Z,88.74
2023-04-16T03:14:21.083Z,87.77
2023-04-16T03:19:23.186Z,87.88
2023-04-16T03:24:21.003Z,87.73
2023-04-16T03:29:20.920Z,87.88
2023-04-16T03:34:20.902Z,87.88
2023-04-16T03:39:20.807Z,87.32
2023-04-16T03:44:20.796Z,87.12
2023-04-16T03:49:20.725Z,86.91
2023-04-16T03:54:22.592Z,87.32
2023-04-16T03:59:20.628Z,87.73
2023-04-16T04:04:20.774Z,87.67
2023-04-16T04:09:20.667Z,87.73
2023-04-16T04:14:20.481Z,86.77
2023-04-16T04:19:20.514Z,87.47
2023-04-16T04:24:20.576Z,88.14
2023-04-16T04:29:20.294Z,87.38
2023-04-16T04:34:20.310Z,88.39
2023-04-16T04:39:20.205Z,88.04
2023-04-16T04:44:20.162Z,87.73
2023-04-16T04:49:20.062Z,87.73
2023-04-16T04:54:20.031Z,87.57
2023-04-16T04:59:19.994Z,88.45
2023-04-16T05:04:20.011Z,87.26
2023-04-16T05:09:19.827Z,88.74
2023-04-16T05:14:19.836Z,88.76
2023-04-16T05:19:19.747Z,87.29
2023-04-16T05:24:28.558Z,85.81
2023-04-16T05:29:19.642Z,85.64
2023-04-16T05:34:19.625Z,86.67
2023-04-16T05:39:19.544Z,86.36
2023-04-16T05:44:19.521Z,86.98
2023-04-16T05:49:19.580Z,86.46
2023-04-16T05:54:19.587Z,86.22
2023-04-16T05:59:19.335Z,86.02
2023-04-16T06:04:19.409Z,86.16
2023-04-16T06:09:19.280Z,85.85
2023-04-16T06:14:19.212Z,86.30
2023-04-16T06:19:19.141Z,86.10
2023-04-16T06:24:19.106Z,86.36
2023-04-16T06:29:19.004Z,85.75
2023-04-16T06:34:18.961Z,86.16
2023-04-16T06:39:18.900Z,85.89
2023-04-16T06:44:19.013Z,85.75
2023-04-16T06:49:18.778Z,85.85
2023-04-16T06:54:18.748Z,86.40
2023-04-16T06:59:18.710Z,86.30
2023-04-16T07:04:18.795Z,86.05
2023-04-16T07:09:18.721Z,85.44
2023-04-16T07:14:18.537Z,85.40
2023-04-16T07:19:18.504Z,84.79
2023-04-16T07:24:18.586Z,84.28
2023-04-16T07:29:18.295Z,84.28
2023-04-16T07:34:18.302Z,85.10
2023-04-16T07:39:18.286Z,85.26
2023-04-16T07:44:18.275Z,84.50
2023-04-16T07:49:28.352Z,83.14
2023-04-16T07:54:18.611Z,83.79
2023-04-16T07:59:22.772Z,83.59
2023-04-16T08:04:19.874Z,83.14
2023-04-16T08:09:17.968Z,82.42
2023-04-16T08:14:18.009Z,82.53
2023-04-16T08:19:17.992Z,82.08
2023-04-16T08:24:17.941Z,82.15
2023-04-16T08:29:17.798Z,82.28
2023-04-16T08:34:17.810Z,81.26
2023-04-16T08:39:17.674Z,81.12
2023-04-16T08:44:17.617Z,81.43
2023-04-16T08:49:17.537Z,80.37
2023-04-16T08:54:17.534Z,79.11
2023-04-16T08:59:17.526Z,79.28
2023-04-16T09:04:17.478Z,79.11
2023-04-16T09:09:17.348Z,79.39
2023-04-16T09:14:17.440Z,78.46
2023-04-16T09:19:17.428Z,76.39
2023-04-16T09:24:17.324Z,76.73
2023-04-16T09:29:25.576Z,78.50
2023-04-16T09:34:17.026Z,78.22
2023-04-16T09:39:17.018Z,77.14
2023-04-16T09:44:16.929Z,75.92
2023-04-16T09:49:17.015Z,76.15
2023-04-16T09:54:16.958Z,77.81
2023-04-16T09:59:16.841Z,76.08
2023-04-16T10:04:17.868Z,74.62
2023-04-16T10:09:16.627Z,75.50
2023-04-16T10:14:16.537Z,73.29
2023-04-16T10:19:16.639Z,73.36
2023-04-16T10:24:16.538Z,71.88
2023-04-16T10:29:16.605Z,72.11
2023-04-16T10:34:16.638Z,71.70
2023-04-16T10:39:17.205Z,70.45
2023-04-16T10:44:18.566Z,70.96
2023-04-16T10:49:16.585Z,70.42
2023-04-16T10:54:16.270Z,68.93
2023-04-16T10:59:16.236Z,68.52
2023-04-16T11:04:16.250Z,67.21
2023-04-16T11:09:16.258Z,67.85
2023-04-16T11:14:16.276Z,67.61
2023-04-16T11:19:15.855Z,65.93
2023-04-16T11:24:15.973Z,64.54
2023-04-16T11:29:15.786Z,63.67
2023-04-16T11:34:15.752Z,63.70
2023-04-16T11:39:15.646Z,64.14
2023-04-16T11:44:15.675Z,66.66
2023-04-16T11:49:15.680Z,66.97
2023-04-16T11:54:16.657Z,67.33
2023-04-16T11:59:15.690Z,67.27
2023-04-16T12:04:15.736Z,65.82
2023-04-16T12:09:16.598Z,66.09
2023-04-16T12:14:15.380Z,66.70
2023-04-16T12:19:15.313Z,66.63
2023-04-16T12:24:24.095Z,66.08
2023-04-16T12:29:15.129Z,67.30
2023-04-16T12:34:15.075Z,65.36
2023-04-16T12:39:14.951Z,62.05
2023-04-16T12:44:14.940Z,64.51
2023-04-16T12:49:14.958Z,63.78
2023-04-16T12:54:14.899Z,65.05
2023-04-16T12:59:14.829Z,65.01
2023-04-16T13:04:14.904Z,64.28
2023-04-16T13:09:14.630Z,63.30
2023-04-16T13:14:14.582Z,63.50
2023-04-16T13:19:14.559Z,63.61
2023-04-16T13:24:14.622Z,61.39
2023-04-16T13:29:14.534Z,60.82
2023-04-16T13:34:14.495Z,62.19
2023-04-16T13:39:14.475Z,62.33
2023-04-16T13:44:14.275Z,63.93
2023-04-16T13:49:14.198Z,65.08
2023-04-16T13:54:14.158Z,64.78
2023-04-16T13:59:14.226Z,66.02
2023-04-16T14:04:14.204Z,65.36
2023-04-16T14:09:14.062Z,65.89
2023-04-16T14:14:14.018Z,65.79
2023-04-16T14:19:13.914Z,64.75
2023-04-16T14:24:13.907Z,65.48
2023-04-16T14:29:13.787Z,65.18
2023-04-16T14:34:13.708Z,66.16
2023-04-16T14:39:13.886Z,65.66
2023-04-16T14:44:13.604Z,64.44
2023-04-16T14:49:13.790Z,64.31
2023-04-16T14:54:13.514Z,63.17
2023-04-16T14:59:13.446Z,62.47
2023-04-16T15:04:13.459Z,62.53
2023-04-16T15:09:13.433Z,64.21
2023-04-16T15:14:13.448Z,64.28
2023-04-16T15:19:13.229Z,64.54
2023-04-16T15:24:13.328Z,63.95
2023-04-16T15:29:14.266Z,62.21
2023-04-16T15:34:13.187Z,61.08
2023-04-16T15:39:13.189Z,61.35
2023-04-16T15:44:12.979Z,60.88
2023-04-16T15:49:12.868Z,60.30
2023-04-16T15:54:12.859Z,61.08
2023-04-16T15:59:13.095Z,60.43
2023-04-16T16:04:12.908Z,59.67
2023-04-16T16:09:12.970Z,59.61
2023-04-16T16:14:13.823Z,59.36
2023-04-16T16:19:33.715Z,59.74
2023-04-16T16:24:12.505Z,60.48
2023-04-16T16:29:12.630Z,59.44
2023-04-16T16:34:19.965Z,60.10
2023-04-16T16:39:13.370Z,59.74
2023-04-16T16:44:12.333Z,58.93
2023-04-16T16:49:12.522Z,59.49
2023-04-16T16:54:12.333Z,59.06
2023-04-16T16:59:12.355Z,60.58
2023-04-16T17:04:12.161Z,60.13
2023-04-16T17:09:12.180Z,60.30
2023-04-16T17:14:11.954Z,61.68
2023-04-16T17:19:12.107Z,62.41
2023-04-16T17:24:12.230Z,63.32
2023-04-16T17:29:11.808Z,63.26
2023-04-16T17:34:11.918Z,63.06
2023-04-16T17:39:11.777Z,63.15
2023-04-16T17:44:12.024Z,64.27
2023-04-16T17:49:11.630Z,65.79
2023-04-16T17:54:11.957Z,67.65
2023-04-16T17:59:11.675Z,69.78
2023-04-16T18:04:11.918Z,73.29
2023-04-16T18:09:11.383Z,73.36
2023-04-16T18:14:11.824Z,74.62
2023-04-16T18:19:11.375Z,74.31
2023-04-16T18:24:12.524Z,75.90
2023-04-16T18:29:12.373Z,75.76
2023-04-16T18:34:11.358Z,76.21
2023-04-16T18:39:11.056Z,77.33
2023-04-16T18:44:11.004Z,76.82
2023-04-16T18:49:11.133Z,76.72
2023-04-16T18:54:10.955Z,78.11
2023-04-16T18:59:11.205Z,76.92
2023-04-16T19:04:10.957Z,76.51
2023-04-16T19:09:11.720Z,77.16
2023-04-16T19:14:10.682Z,77.06
2023-04-16T19:19:10.822Z,77.06
2023-04-16T19:24:10.546Z,76.75
2023-04-16T19:29:10.769Z,76.72
2023-04-16T19:34:10.497Z,76.95
2023-04-16T19:39:11.654Z,77.50
2023-04-16T19:44:10.375Z,77.16
2023-04-16T19:49:10.630Z,77.09
2023-04-16T19:54:10.237Z,77.29
2023-04-16T19:59:11.415Z,76.79
2023-04-16T20:04:10.280Z,76.38
2023-04-16T20:09:10.315Z,77.20
2023-04-16T20:14:10.033Z,77.23
2023-04-16T20:19:10.331Z,78.05
2023-04-16T20:24:09.914Z,77.60
2023-04-16T20:29:10.295Z,77.40
2023-04-16T20:34:09.776Z,78.21
2023-04-16T20:39:09.994Z,78.41
2023-04-16T20:44:09.693Z,78.62
2023-04-16T20:49:09.960Z,78.62
2023-04-16T20:54:09.572Z,78.96
2023-04-16T20:59:09.860Z,79.41
2023-04-16T21:04:09.765Z,80.11
2023-04-16T21:09:09.597Z,80.05
2023-04-16T21:14:09.393Z,80.05
2023-04-16T21:19:12.755Z,80.87
2023-04-16T21:24:10.249Z,80.97
2023-04-16T21:29:09.310Z,81.68
2023-04-16T21:34:09.223Z,80.91
2023-04-16T21:39:09.243Z,82.88
2023-04-16T21:44:09.015Z,82.64
2023-04-16T21:49:09.270Z,81.48
2023-04-16T21:54:08.930Z,81.07
2023-04-16T21:59:09.008Z,81.31
2023-04-16T22:04:08.853Z,82.23
2023-04-16T22:09:08.900Z,82.54
2023-04-16T22:14:08.785Z,82.54
2023-04-16T22:19:08.752Z,83.49
2023-04-16T22:24:08.570Z,83.09
2023-04-16T22:29:08.631Z,82.84
2023-04-16T22:34:08.470Z,83.39
2023-04-16T22:39:08.542Z,83.49
2023-04-16T22:44:08.381Z,84.66
2023-04-16T22:49:08.331Z,84.11
2023-04-16T22:54:08.285Z,83.18
2023-04-16T22:59:08.197Z,84.25
2023-04-16T23:04:08.197Z,84.41
2023-04-16T23:09:08.112Z,84.25
2023-04-16T23:14:08.145Z,84.41
2023-04-16T23:19:07.976Z,83.39
2023-04-16T23:24:07.973Z,84.34
2023-04-16T23:29:07.919Z,83.59
2023-04-16T23:34:07.917Z,83.15
2023-04-16T23:39:11.349Z,83.39
2023-04-16T23:44:07.738Z,83.29
2023-04-16T23:49:07.668Z,84.00
2023-04-16T23:54:07.634Z,83.70
2023-04-16T23:59:07.556Z,83.04
